Hauptseite
METAR-TAF:

METAR-TAF

Flughäfen :

Militärflugplatz Leeuwarden

Leeuwarden, Niederlande

Breite: 53-13N, Länge: 005-46E, Höhe: 1 m

Beobachtung

Neuester Wetterbericht von vor 41 Minuten, um 15:25 UTC
Wind 7 kt aus Nordwest, variierte zwischen West und Nord
Temperatur 23°C
Luftfeuchtigkeit 69%
Luftdruck 1025 hPa
Sichtweite 10 km oder mehr
Leicht bewölkt in der Höhe von 3200 ft
Geschlossene Wolkendecke in der Höhe von 29000 ft

METAR: EHLW 231525Z AUTO 32007KT 260V350 9999 FEW032 OVC290 23/17 Q1025 BLU

Zeit: 18:06 (16:06 UTC)

Prognose

Neuester Wetterbericht von vor 3 Stunden und 33 Minuten, um 12:33 UTC
Gültige Prognose vom 23 um 13 UTC bis 24 um 01 UTC
Wind 6 kt aus West
Sichtweite 10 km oder mehr
Leicht bewölkt in der Höhe von 3000 ft
Übergehend zu
vom 23 um 15 UTC bis 23 um 18 UTC
Wind 6 kt aus Ost/Nordost

TAF: EHLW 231233Z 2313/2401 27006KT 9999 FEW030 BECMG 2315/2318 07006KT

Wetterbeobachtungen und Prognosen von mehr als 4000 Flughäfen (METAR und TAF Bericht).

Die verfügbaren Stationen werden durch gelbe und rote Markierungen auf der Karte dargestellt.

Führen Sie die Maus auf sie, um den Namen der Station zu sehen.

Darauf klicken, um die Beobachtung von Wetterbeobachtungen und Prognosen zu sehen.

Um die Karte zu ändern : klicken Sie auf den grünen Tasten mit einem schwarzen Kreuz Zum Vergrößern, auf den grünen Button mit einem Gedankenstrich zu verkleinern, oder auf die grünen Pfeile für benachbarte Karten.


METAR-TAF: